sensor_id;sensor_type;location;lat;lon;timestamp;pressure;altitude;pressure_sealevel;temperature;humidity
44825;BME280;30542;47.928;2.138;2023-03-16T00:01:56;100430.06;;;18.88;44.94
44825;BME280;30542;47.928;2.138;2023-03-16T00:06:57;100429.22;;;18.83;44.83
44825;BME280;30542;47.928;2.138;2023-03-16T00:12:01;100435.38;;;18.83;44.98
44825;BME280;30542;47.928;2.138;2023-03-16T00:17:02;100437.75;;;18.80;45.25
44825;BME280;30542;47.928;2.138;2023-03-16T00:22:05;100417.69;;;18.77;45.22
44825;BME280;30542;47.928;2.138;2023-03-16T00:27:05;100413.16;;;18.78;44.94
44825;BME280;30542;47.928;2.138;2023-03-16T00:32:06;100414.97;;;18.72;45.30
44825;BME280;30542;47.928;2.138;2023-03-16T00:37:06;100409.06;;;18.70;45.07
44825;BME280;30542;47.928;2.138;2023-03-16T00:42:08;100403.44;;;18.67;45.14
44825;BME280;30542;47.928;2.138;2023-03-16T00:47:09;100395.94;;;18.63;45.22
44825;BME280;30542;47.928;2.138;2023-03-16T00:52:13;100368.44;;;18.63;45.31
44825;BME280;30542;47.928;2.138;2023-03-16T00:57:16;100366.81;;;18.62;45.10
44825;BME280;30542;47.928;2.138;2023-03-16T01:02:20;100348.63;;;18.54;44.87
44825;BME280;30542;47.928;2.138;2023-03-16T01:07:23;100350.78;;;18.57;45.15
44825;BME280;30542;47.928;2.138;2023-03-16T01:12:24;100338.75;;;18.54;44.98
44825;BME280;30542;47.928;2.138;2023-03-16T01:17:24;100332.06;;;18.52;45.40
44825;BME280;30542;47.928;2.138;2023-03-16T01:22:24;100329.91;;;18.49;45.21
44825;BME280;30542;47.928;2.138;2023-03-16T01:27:25;100327.22;;;18.49;44.90
44825;BME280;30542;47.928;2.138;2023-03-16T01:32:25;100329.06;;;18.43;45.25
44825;BME280;30542;47.928;2.138;2023-03-16T01:37:25;100322.13;;;18.42;45.06
44825;BME280;30542;47.928;2.138;2023-03-16T01:42:26;100321.00;;;18.38;45.49
44825;BME280;30542;47.928;2.138;2023-03-16T01:47:26;100317.53;;;18.37;45.10
44825;BME280;30542;47.928;2.138;2023-03-16T01:52:31;100317.25;;;18.34;45.17
44825;BME280;30542;47.928;2.138;2023-03-16T01:57:39;100313.47;;;18.30;45.57
44825;BME280;30542;47.928;2.138;2023-03-16T02:02:43;100303.88;;;18.29;44.97
44825;BME280;30542;47.928;2.138;2023-03-16T02:07:46;100297.16;;;18.26;45.47
44825;BME280;30542;47.928;2.138;2023-03-16T02:12:48;100287.81;;;18.24;45.08
44825;BME280;30542;47.928;2.138;2023-03-16T02:17:49;100280.34;;;18.21;45.29
44825;BME280;30542;47.928;2.138;2023-03-16T02:22:51;100271.47;;;18.15;45.19
44825;BME280;30542;47.928;2.138;2023-03-16T02:28:10;100258.91;;;18.10;45.46
44825;BME280;30542;47.928;2.138;2023-03-16T02:33:16;100257.78;;;18.06;45.37
44825;BME280;30542;47.928;2.138;2023-03-16T02:38:17;100257.75;;;18.01;45.30
44825;BME280;30542;47.928;2.138;2023-03-16T02:43:20;100241.25;;;18.04;45.53
44825;BME280;30542;47.928;2.138;2023-03-16T02:48:47;100238.28;;;18.01;45.38
44825;BME280;30542;47.928;2.138;2023-03-16T02:53:48;100229.44;;;17.95;45.75
44825;BME280;30542;47.928;2.138;2023-03-16T02:58:49;100225.34;;;18.14;45.24
44825;BME280;30542;47.928;2.138;2023-03-16T03:03:49;100229.09;;;18.13;45.16
44825;BME280;30542;47.928;2.138;2023-03-16T03:08:50;100233.72;;;18.28;44.96
44825;BME280;30542;47.928;2.138;2023-03-16T03:13:50;100222.34;;;18.38;44.60
44825;BME280;30542;47.928;2.138;2023-03-16T03:18:51;100217.09;;;18.48;44.90
44825;BME280;30542;47.928;2.138;2023-03-16T03:23:53;100214.22;;;18.60;44.40
44825;BME280;30542;47.928;2.138;2023-03-16T03:28:54;100210.78;;;18.64;44.23
44825;BME280;30542;47.928;2.138;2023-03-16T03:33:54;100209.56;;;18.77;43.95
44825;BME280;30542;47.928;2.138;2023-03-16T03:38:55;100220.56;;;18.86;44.15
44825;BME280;30542;47.928;2.138;2023-03-16T03:43:55;100201.38;;;18.89;44.23
44825;BME280;30542;47.928;2.138;2023-03-16T03:48:55;100213.16;;;18.98;43.93
44825;BME280;30542;47.928;2.138;2023-03-16T03:54:00;100212.13;;;19.04;43.60
44825;BME280;30542;47.928;2.138;2023-03-16T03:59:01;100211.06;;;19.10;43.66
44825;BME280;30542;47.928;2.138;2023-03-16T04:04:01;100200.69;;;19.14;43.78
44825;BME280;30542;47.928;2.138;2023-03-16T04:09:01;100200.97;;;19.18;43.20
44825;BME280;30542;47.928;2.138;2023-03-16T04:14:02;100203.66;;;19.23;43.52
44825;BME280;30542;47.928;2.138;2023-03-16T04:19:03;100186.84;;;19.27;43.10
44825;BME280;30542;47.928;2.138;2023-03-16T04:24:03;100171.38;;;19.29;42.77
44825;BME280;30542;47.928;2.138;2023-03-16T04:29:04;100171.66;;;19.33;43.10
44825;BME280;30542;47.928;2.138;2023-03-16T04:34:05;100163.09;;;19.31;43.01
44825;BME280;30542;47.928;2.138;2023-03-16T04:39:05;100171.16;;;19.41;42.76
44825;BME280;30542;47.928;2.138;2023-03-16T04:44:05;100159.38;;;19.42;42.79
44825;BME280;30542;47.928;2.138;2023-03-16T04:49:06;100158.31;;;19.43;42.89
44825;BME280;30542;47.928;2.138;2023-03-16T04:54:09;100163.13;;;19.46;42.93
44825;BME280;30542;47.928;2.138;2023-03-16T04:59:10;100179.69;;;19.48;42.84
44825;BME280;30542;47.928;2.138;2023-03-16T05:04:11;100175.97;;;19.49;42.62
44825;BME280;30542;47.928;2.138;2023-03-16T05:09:11;100158.59;;;19.52;42.40
44825;BME280;30542;47.928;2.138;2023-03-16T05:14:13;100140.69;;;19.52;42.62
44825;BME280;30542;47.928;2.138;2023-03-16T05:19:13;100151.13;;;19.54;42.47
44825;BME280;30542;47.928;2.138;2023-03-16T05:24:13;100136.97;;;19.53;42.81
44825;BME280;30542;47.928;2.138;2023-03-16T05:29:14;100129.50;;;19.55;42.19
44825;BME280;30542;47.928;2.138;2023-03-16T05:34:14;100123.34;;;19.55;42.75
44825;BME280;30542;47.928;2.138;2023-03-16T05:39:14;100128.44;;;19.61;42.80
44825;BME280;30542;47.928;2.138;2023-03-16T05:44:15;100125.53;;;19.68;42.78
44825;BME280;30542;47.928;2.138;2023-03-16T05:49:16;100119.66;;;19.66;42.18
44825;BME280;30542;47.928;2.138;2023-03-16T05:54:16;100117.22;;;19.70;41.79
44825;BME280;30542;47.928;2.138;2023-03-16T05:59:17;100121.00;;;19.79;41.97
44825;BME280;30542;47.928;2.138;2023-03-16T06:04:17;100113.50;;;19.81;42.46
44825;BME280;30542;47.928;2.138;2023-03-16T06:09:17;100101.50;;;19.83;43.57
44825;BME280;30542;47.928;2.138;2023-03-16T06:14:18;100095.88;;;19.80;43.73
44825;BME280;30542;47.928;2.138;2023-03-16T06:19:18;100100.16;;;19.76;44.05
44825;BME280;30542;47.928;2.138;2023-03-16T06:24:19;100094.81;;;19.71;44.24
44825;BME280;30542;47.928;2.138;2023-03-16T06:29:20;100096.38;;;19.61;44.60
44825;BME280;30542;47.928;2.138;2023-03-16T06:34:20;100018.59;;;19.02;44.49
44825;BME280;30542;47.928;2.138;2023-03-16T06:39:21;100093.13;;;19.44;44.68
44825;BME280;30542;47.928;2.138;2023-03-16T06:44:22;100096.13;;;19.58;44.20
44825;BME280;30542;47.928;2.138;2023-03-16T06:49:22;100079.31;;;19.68;44.31
44825;BME280;30542;47.928;2.138;2023-03-16T06:54:23;100083.03;;;19.77;44.53
44825;BME280;30542;47.928;2.138;2023-03-16T06:59:24;100072.34;;;19.82;44.48
44825;BME280;30542;47.928;2.138;2023-03-16T07:04:24;100071.81;;;19.85;44.81
44825;BME280;30542;47.928;2.138;2023-03-16T07:09:24;100076.34;;;19.84;44.92
44825;BME280;30542;47.928;2.138;2023-03-16T07:14:25;100077.44;;;19.89;44.58
44825;BME280;30542;47.928;2.138;2023-03-16T07:19:25;100075.03;;;19.92;44.44
44825;BME280;30542;47.928;2.138;2023-03-16T07:24:26;100077.16;;;19.95;44.61
44825;BME280;30542;47.928;2.138;2023-03-16T07:29:27;100076.34;;;19.95;44.38
44825;BME280;30542;47.928;2.138;2023-03-16T07:34:27;100085.16;;;20.00;44.48
44825;BME280;30542;47.928;2.138;2023-03-16T07:39:28;100086.75;;;20.01;44.26
44825;BME280;30542;47.928;2.138;2023-03-16T07:44:28;100095.34;;;20.03;44.31
44825;BME280;30542;47.928;2.138;2023-03-16T07:49:30;100093.47;;;20.04;44.25
44825;BME280;30542;47.928;2.138;2023-03-16T07:54:30;100082.47;;;20.05;44.16
44825;BME280;30542;47.928;2.138;2023-03-16T07:59:31;100083.28;;;20.06;44.17
44825;BME280;30542;47.928;2.138;2023-03-16T08:04:31;100079.00;;;20.10;44.09
44825;BME280;30542;47.928;2.138;2023-03-16T08:09:31;100066.19;;;20.12;43.90
44825;BME280;30542;47.928;2.138;2023-03-16T08:14:35;100074.19;;;20.17;44.07
44825;BME280;30542;47.928;2.138;2023-03-16T08:19:35;100083.53;;;20.20;44.04
44825;BME280;30542;47.928;2.138;2023-03-16T08:24:36;100079.50;;;20.27;44.16
44825;BME280;30542;47.928;2.138;2023-03-16T08:29:37;100083.25;;;20.36;43.88
44825;BME280;30542;47.928;2.138;2023-03-16T08:34:37;100074.66;;;20.40;43.73
44825;BME280;30542;47.928;2.138;2023-03-16T08:39:42;100073.81;;;20.44;43.76
44825;BME280;30542;47.928;2.138;2023-03-16T08:44:42;100064.22;;;20.48;43.68
44825;BME280;30542;47.928;2.138;2023-03-16T08:49:43;100056.19;;;20.48;43.63
44825;BME280;30542;47.928;2.138;2023-03-16T08:54:43;100065.84;;;20.49;43.57
44825;BME280;30542;47.928;2.138;2023-03-16T08:59:44;100060.19;;;20.46;43.31
44825;BME280;30542;47.928;2.138;2023-03-16T09:04:45;100052.47;;;20.49;43.34
44825;BME280;30542;47.928;2.138;2023-03-16T09:09:46;100047.09;;;20.49;43.37
44825;BME280;30542;47.928;2.138;2023-03-16T09:14:46;100046.81;;;20.51;43.11
44825;BME280;30542;47.928;2.138;2023-03-16T09:19:48;100023.53;;;20.51;43.26
44825;BME280;30542;47.928;2.138;2023-03-16T09:24:48;100036.34;;;20.59;43.49
44825;BME280;30542;47.928;2.138;2023-03-16T09:29:48;100041.16;;;20.63;43.30
44825;BME280;30542;47.928;2.138;2023-03-16T09:34:50;100041.66;;;20.65;43.22
44825;BME280;30542;47.928;2.138;2023-03-16T09:39:51;100029.34;;;20.69;43.26
44825;BME280;30542;47.928;2.138;2023-03-16T09:45:02;100011.66;;;20.73;43.19
44825;BME280;30542;47.928;2.138;2023-03-16T09:50:10;100013.00;;;20.75;43.09
44825;BME280;30542;47.928;2.138;2023-03-16T09:55:33;99997.22;;;20.74;42.90
44825;BME280;30542;47.928;2.138;2023-03-16T10:00:44;99993.50;;;20.70;43.36
44825;BME280;30542;47.928;2.138;2023-03-16T10:05:54;99989.19;;;20.69;43.15
44825;BME280;30542;47.928;2.138;2023-03-16T10:11:21;99988.66;;;20.72;42.84
44825;BME280;30542;47.928;2.138;2023-03-16T10:16:31;99984.88;;;20.78;42.85
44825;BME280;30542;47.928;2.138;2023-03-16T10:21:38;99981.13;;;20.79;42.83
44825;BME280;30542;47.928;2.138;2023-03-16T10:26:41;99970.69;;;20.82;42.70
44825;BME280;30542;47.928;2.138;2023-03-16T10:31:46;99974.69;;;20.80;42.74
44825;BME280;30542;47.928;2.138;2023-03-16T10:36:48;99963.44;;;20.83;42.83
44825;BME280;30542;47.928;2.138;2023-03-16T10:41:56;99953.81;;;20.82;42.83
44825;BME280;30542;47.928;2.138;2023-03-16T10:47:02;99957.53;;;20.81;42.70
44825;BME280;30542;47.928;2.138;2023-03-16T10:52:21;99946.88;;;20.76;42.68
44825;BME280;30542;47.928;2.138;2023-03-16T10:57:29;99947.97;;;20.75;42.88
44825;BME280;30542;47.928;2.138;2023-03-16T11:02:32;99935.13;;;20.72;42.84
44825;BME280;30542;47.928;2.138;2023-03-16T11:07:34;99931.69;;;20.66;42.91
44825;BME280;30542;47.928;2.138;2023-03-16T11:12:35;99919.16;;;20.62;42.82
44825;BME280;30542;47.928;2.138;2023-03-16T11:17:38;99918.31;;;20.66;42.94
44825;BME280;30542;47.928;2.138;2023-03-16T11:22:44;99918.28;;;20.71;42.82
44825;BME280;30542;47.928;2.138;2023-03-16T11:27:50;99908.38;;;20.72;42.81
44825;BME280;30542;47.928;2.138;2023-03-16T11:32:52;99896.06;;;20.71;42.90
44825;BME280;30542;47.928;2.138;2023-03-16T11:43:48;99886.66;;;20.73;42.81
44825;BME280;30542;47.928;2.138;2023-03-16T11:48:57;99891.75;;;20.75;43.24
44825;BME280;30542;47.928;2.138;2023-03-16T12:10:46;99869.84;;;20.68;44.05
44825;BME280;30542;47.928;2.138;2023-03-16T12:15:51;99856.22;;;20.64;44.10
44825;BME280;30542;47.928;2.138;2023-03-16T12:21:00;99849.28;;;20.63;43.95
44825;BME280;30542;47.928;2.138;2023-03-16T12:26:02;99844.78;;;20.58;44.29
44825;BME280;30542;47.928;2.138;2023-03-16T12:31:13;99832.50;;;20.57;44.31
44825;BME280;30542;47.928;2.138;2023-03-16T12:36:49;99828.78;;;20.53;44.26
44825;BME280;30542;47.928;2.138;2023-03-16T12:52:39;99801.47;;;20.51;43.80
44825;BME280;30542;47.928;2.138;2023-03-16T12:57:40;99789.72;;;20.47;44.12
44825;BME280;30542;47.928;2.138;2023-03-16T13:02:44;99789.19;;;20.50;44.18
44825;BME280;30542;47.928;2.138;2023-03-16T13:07:50;99781.44;;;20.44;44.04
44825;BME280;30542;47.928;2.138;2023-03-16T13:12:51;99766.78;;;20.41;43.92
44825;BME280;30542;47.928;2.138;2023-03-16T13:28:27;99746.72;;;20.39;44.14
44825;BME280;30542;47.928;2.138;2023-03-16T13:33:36;99744.28;;;20.42;43.98
44825;BME280;30542;47.928;2.138;2023-03-16T13:38:37;99727.75;;;20.35;43.95
44825;BME280;30542;47.928;2.138;2023-03-16T13:43:41;99721.06;;;20.38;43.88
44825;BME280;30542;47.928;2.138;2023-03-16T13:48:43;99711.72;;;20.35;43.94
44825;BME280;30542;47.928;2.138;2023-03-16T13:53:46;99716.22;;;20.40;43.84
44825;BME280;30542;47.928;2.138;2023-03-16T13:58:50;99701.53;;;20.37;44.03
44825;BME280;30542;47.928;2.138;2023-03-16T14:03:54;99688.25;;;20.27;44.02
44825;BME280;30542;47.928;2.138;2023-03-16T14:09:00;99699.91;;;20.36;44.03
44825;BME280;30542;47.928;2.138;2023-03-16T14:14:12;99697.25;;;20.36;44.02
44825;BME280;30542;47.928;2.138;2023-03-16T14:19:25;99680.16;;;20.32;44.08
44825;BME280;30542;47.928;2.138;2023-03-16T14:24:34;99664.72;;;20.29;43.86
44825;BME280;30542;47.928;2.138;2023-03-16T14:29:36;99660.66;;;20.31;43.86
44825;BME280;30542;47.928;2.138;2023-03-16T14:34:38;99667.56;;;20.38;43.74
44825;BME280;30542;47.928;2.138;2023-03-16T14:39:41;99668.91;;;20.35;43.74
44825;BME280;30542;47.928;2.138;2023-03-16T14:44:42;99665.16;;;20.36;43.69
44825;BME280;30542;47.928;2.138;2023-03-16T14:49:43;99661.69;;;20.35;43.71
44825;BME280;30542;47.928;2.138;2023-03-16T14:54:43;99657.13;;;20.36;43.67
44825;BME280;30542;47.928;2.138;2023-03-16T14:59:44;99650.47;;;20.33;43.90
44825;BME280;30542;47.928;2.138;2023-03-16T15:04:45;99649.69;;;20.33;43.75
44825;BME280;30542;47.928;2.138;2023-03-16T15:09:47;99640.59;;;20.34;43.76
44825;BME280;30542;47.928;2.138;2023-03-16T15:14:49;99638.75;;;20.29;43.70
44825;BME280;30542;47.928;2.138;2023-03-16T15:20:14;99637.13;;;20.33;43.77
44825;BME280;30542;47.928;2.138;2023-03-16T15:25:22;99630.19;;;20.32;43.64
44825;BME280;30542;47.928;2.138;2023-03-16T15:30:25;99632.84;;;20.32;44.06
44825;BME280;30542;47.928;2.138;2023-03-16T15:35:25;99630.97;;;20.33;43.65
44825;BME280;30542;47.928;2.138;2023-03-16T15:40:27;99627.50;;;20.32;43.70
44825;BME280;30542;47.928;2.138;2023-03-16T15:45:28;99615.19;;;20.31;43.58
44825;BME280;30542;47.928;2.138;2023-03-16T15:50:28;99623.50;;;20.30;43.70
44825;BME280;30542;47.928;2.138;2023-03-16T15:55:54;99610.63;;;20.32;43.56
44825;BME280;30542;47.928;2.138;2023-03-16T16:00:58;99603.69;;;20.31;43.69
44825;BME280;30542;47.928;2.138;2023-03-16T16:06:00;99600.22;;;20.30;43.73
44825;BME280;30542;47.928;2.138;2023-03-16T16:11:01;99598.91;;;20.28;43.74
44825;BME280;30542;47.928;2.138;2023-03-16T16:16:05;99606.13;;;20.27;43.76
44825;BME280;30542;47.928;2.138;2023-03-16T16:21:08;99607.22;;;20.26;43.52
44825;BME280;30542;47.928;2.138;2023-03-16T16:26:26;99614.94;;;20.28;43.81
44825;BME280;30542;47.928;2.138;2023-03-16T16:31:29;99609.59;;;20.28;43.61
44825;BME280;30542;47.928;2.138;2023-03-16T16:36:29;99618.22;;;20.25;43.61
44825;BME280;30542;47.928;2.138;2023-03-16T16:41:32;99624.84;;;20.27;43.76
44825;BME280;30542;47.928;2.138;2023-03-16T16:46:37;99602.97;;;20.25;43.60
44825;BME280;30542;47.928;2.138;2023-03-16T16:51:41;99598.69;;;20.24;43.98
44825;BME280;30542;47.928;2.138;2023-03-16T16:56:41;99594.16;;;20.25;43.69
44825;BME280;30542;47.928;2.138;2023-03-16T17:01:42;99592.25;;;20.25;44.22
44825;BME280;30542;47.928;2.138;2023-03-16T17:06:44;99598.13;;;20.27;43.58
44825;BME280;30542;47.928;2.138;2023-03-16T17:11:45;99591.97;;;20.27;43.57
44825;BME280;30542;47.928;2.138;2023-03-16T17:16:46;99592.56;;;20.24;43.91
44825;BME280;30542;47.928;2.138;2023-03-16T17:21:48;99598.69;;;20.24;43.67
44825;BME280;30542;47.928;2.138;2023-03-16T17:26:54;99596.81;;;20.25;44.05
44825;BME280;30542;47.928;2.138;2023-03-16T17:31:58;99594.94;;;20.25;43.97
44825;BME280;30542;47.928;2.138;2023-03-16T17:37:00;99594.16;;;20.25;43.97
44825;BME280;30542;47.928;2.138;2023-03-16T17:42:03;99592.56;;;20.24;43.91
44825;BME280;30542;47.928;2.138;2023-03-16T17:47:15;99587.22;;;20.24;44.23
44825;BME280;30542;47.928;2.138;2023-03-16T17:52:18;99579.44;;;20.22;44.13
44825;BME280;30542;47.928;2.138;2023-03-16T17:57:28;99577.31;;;20.24;43.83
44825;BME280;30542;47.928;2.138;2023-03-16T18:02:58;99584.81;;;20.22;43.99
44825;BME280;30542;47.928;2.138;2023-03-16T18:08:17;99590.09;;;20.27;43.80
44825;BME280;30542;47.928;2.138;2023-03-16T18:13:24;99582.88;;;20.28;43.89
44825;BME280;30542;47.928;2.138;2023-03-16T18:18:29;99573.88;;;20.19;44.39
44825;BME280;30542;47.928;2.138;2023-03-16T18:23:32;99591.41;;;20.30;44.35
44825;BME280;30542;47.928;2.138;2023-03-16T18:28:33;99595.41;;;20.32;45.10
44825;BME280;30542;47.928;2.138;2023-03-16T18:33:36;99577.97;;;20.35;44.83
44825;BME280;30542;47.928;2.138;2023-03-16T18:38:39;99581.75;;;20.34;44.87
44825;BME280;30542;47.928;2.138;2023-03-16T18:43:40;99596.75;;;20.30;45.01
44825;BME280;30542;47.928;2.138;2023-03-16T18:48:41;99590.38;;;20.26;45.27
44825;BME280;30542;47.928;2.138;2023-03-16T18:53:41;99593.69;;;20.18;45.46
44825;BME280;30542;47.928;2.138;2023-03-16T18:58:42;99594.69;;;20.22;45.51
44825;BME280;30542;47.928;2.138;2023-03-16T19:03:42;99588.78;;;20.25;45.78
44825;BME280;30542;47.928;2.138;2023-03-16T19:08:43;99589.47;;;20.11;46.04
44825;BME280;30542;47.928;2.138;2023-03-16T19:13:44;99581.22;;;20.08;45.96
44825;BME280;30542;47.928;2.138;2023-03-16T19:18:44;99559.41;;;19.96;46.00
44825;BME280;30542;47.928;2.138;2023-03-16T19:23:54;99547.34;;;19.98;46.12
44825;BME280;30542;47.928;2.138;2023-03-16T19:28:56;99544.41;;;20.00;45.96
44825;BME280;30542;47.928;2.138;2023-03-16T19:33:56;99566.34;;;19.97;46.35
44825;BME280;30542;47.928;2.138;2023-03-16T19:38:57;99567.13;;;19.97;45.97
44825;BME280;30542;47.928;2.138;2023-03-16T19:44:07;99565.06;;;19.89;46.22
44825;BME280;30542;47.928;2.138;2023-03-16T19:54:24;99574.16;;;19.88;46.40
44825;BME280;30542;47.928;2.138;2023-03-16T19:59:29;99570.69;;;19.88;46.60
44825;BME280;30542;47.928;2.138;2023-03-16T20:04:30;99557.84;;;19.90;46.65
44825;BME280;30542;47.928;2.138;2023-03-16T20:09:31;99543.97;;;19.88;46.50
44825;BME280;30542;47.928;2.138;2023-03-16T20:14:32;99533.53;;;19.91;46.77
44825;BME280;30542;47.928;2.138;2023-03-16T20:19:32;99548.00;;;19.85;46.93
44825;BME280;30542;47.928;2.138;2023-03-16T20:24:33;99537.31;;;19.85;46.83
44825;BME280;30542;47.928;2.138;2023-03-16T20:29:34;99526.50;;;19.71;46.63
44825;BME280;30542;47.928;2.138;2023-03-16T20:34:34;99544.59;;;19.79;46.60
44825;BME280;30542;47.928;2.138;2023-03-16T20:39:35;99536.38;;;19.71;46.85
44825;BME280;30542;47.928;2.138;2023-03-16T20:44:37;99497.56;;;19.44;47.17
44825;BME280;30542;47.928;2.138;2023-03-16T20:49:38;99526.56;;;19.61;47.35
44825;BME280;30542;47.928;2.138;2023-03-16T20:54:38;99536.47;;;19.55;47.23
44825;BME280;30542;47.928;2.138;2023-03-16T20:59:38;99522.56;;;19.58;47.21
44825;BME280;30542;47.928;2.138;2023-03-16T21:04:39;99517.22;;;19.58;47.27
44825;BME280;30542;47.928;2.138;2023-03-16T21:09:41;99528.22;;;19.52;46.92
44825;BME280;30542;47.928;2.138;2023-03-16T21:14:42;99519.34;;;19.56;46.73
44825;BME280;30542;47.928;2.138;2023-03-16T21:19:42;99518.31;;;19.52;46.63
44825;BME280;30542;47.928;2.138;2023-03-16T21:24:42;99529.59;;;19.49;47.09
44825;BME280;30542;47.928;2.138;2023-03-16T21:29:43;99523.13;;;19.55;47.08
44825;BME280;30542;47.928;2.138;2023-03-16T21:34:43;99521.03;;;19.47;46.79
44825;BME280;30542;47.928;2.138;2023-03-16T21:39:44;99515.78;;;19.37;46.94
44825;BME280;30542;47.928;2.138;2023-03-16T21:44:47;99518.97;;;19.39;46.94
44825;BME280;30542;47.928;2.138;2023-03-16T21:49:47;99525.44;;;19.33;46.87
44825;BME280;30542;47.928;2.138;2023-03-16T21:54:50;99536.56;;;19.40;46.81
44825;BME280;30542;47.928;2.138;2023-03-16T21:59:50;99533.41;;;19.38;46.96
44825;BME280;30542;47.928;2.138;2023-03-16T22:04:51;99521.66;;;19.39;47.11
44825;BME280;30542;47.928;2.138;2023-03-16T22:09:52;99521.66;;;19.39;46.69
44825;BME280;30542;47.928;2.138;2023-03-16T22:14:52;99520.56;;;19.40;46.56
44825;BME280;30542;47.928;2.138;2023-03-16T22:19:52;99516.91;;;19.31;47.11
44825;BME280;30542;47.928;2.138;2023-03-16T22:24:53;99509.41;;;19.33;46.90
44825;BME280;30542;47.928;2.138;2023-03-16T22:29:53;99517.97;;;19.30;46.68
44825;BME280;30542;47.928;2.138;2023-03-16T22:34:55;99524.13;;;19.30;46.81
44825;BME280;30542;47.928;2.138;2023-03-16T22:39:56;99522.78;;;19.28;46.83
44825;BME280;30542;47.928;2.138;2023-03-16T22:44:57;99528.41;;;19.26;46.57
44825;BME280;30542;47.928;2.138;2023-03-16T22:49:58;99520.16;;;19.23;47.04
44825;BME280;30542;47.928;2.138;2023-03-16T22:55:00;99521.75;;;19.24;46.77
44825;BME280;30542;47.928;2.138;2023-03-16T23:00:02;99519.38;;;19.22;46.87
44825;BME280;30542;47.928;2.138;2023-03-16T23:05:21;99514.88;;;19.18;46.78
44825;BME280;30542;47.928;2.138;2023-03-16T23:10:24;99515.66;;;19.18;46.78
44825;BME280;30542;47.928;2.138;2023-03-16T23:15:28;99514.81;;;19.23;46.52
44825;BME280;30542;47.928;2.138;2023-03-16T23:20:31;99510.59;;;19.17;46.62
44825;BME280;30542;47.928;2.138;2023-03-16T23:25:31;99518.31;;;19.18;46.29
44825;BME280;30542;47.928;2.138;2023-03-16T23:30:32;99514.31;;;19.16;46.64
44825;BME280;30542;47.928;2.138;2023-03-16T23:35:33;99507.41;;;19.15;46.64
44825;BME280;30542;47.928;2.138;2023-03-16T23:40:35;99510.06;;;19.15;46.60
44825;BME280;30542;47.928;2.138;2023-03-16T23:45:40;99508.47;;;19.13;46.71
44825;BME280;30542;47.928;2.138;2023-03-16T23:50:42;99507.94;;;19.11;46.35
44825;BME280;30542;47.928;2.138;2023-03-16T23:55:44;99504.22;;;19.12;46.41
